sensor_id;sensor_type;location;lat;lon;timestamp;temperature;humidity
52471;DHT22;38382;53.160;7.026;2022-10-16T00:01:24;12.30;99.90
52471;DHT22;38382;53.160;7.026;2022-10-16T00:03:51;12.30;99.90
52471;DHT22;38382;53.160;7.026;2022-10-16T00:06:18;12.30;99.90
52471;DHT22;38382;53.160;7.026;2022-10-16T00:08:45;12.30;99.90
52471;DHT22;38382;53.160;7.026;2022-10-16T00:11:16;12.30;99.90
52471;DHT22;38382;53.160;7.026;2022-10-16T00:13:43;12.30;99.90
52471;DHT22;38382;53.160;7.026;2022-10-16T00:16:10;12.30;99.90
52471;DHT22;38382;53.160;7.026;2022-10-16T00:18:36;12.20;99.90
52471;DHT22;38382;53.160;7.026;2022-10-16T00:21:12;12.30;99.90
52471;DHT22;38382;53.160;7.026;2022-10-16T00:23:38;12.20;99.90
52471;DHT22;38382;53.160;7.026;2022-10-16T00:26:08;12.30;99.90
52471;DHT22;38382;53.160;7.026;2022-10-16T00:28:35;12.20;99.90
52471;DHT22;38382;53.160;7.026;2022-10-16T00:31:07;12.20;99.90
52471;DHT22;38382;53.160;7.026;2022-10-16T00:33:34;12.20;99.90
52471;DHT22;38382;53.160;7.026;2022-10-16T00:36:00;12.10;99.90
52471;DHT22;38382;53.160;7.026;2022-10-16T00:38:26;12.20;99.90
52471;DHT22;38382;53.160;7.026;2022-10-16T00:40:52;12.20;99.90
52471;DHT22;38382;53.160;7.026;2022-10-16T00:46:07;12.10;99.90
52471;DHT22;38382;53.160;7.026;2022-10-16T00:48:34;12.10;99.90
52471;DHT22;38382;53.160;7.026;2022-10-16T00:51:00;12.40;99.90
52471;DHT22;38382;53.160;7.026;2022-10-16T00:53:26;12.10;99.90
52471;DHT22;38382;53.160;7.026;2022-10-16T00:55:52;12.00;99.90
52471;DHT22;38382;53.160;7.026;2022-10-16T00:58:18;12.00;99.90
52471;DHT22;38382;53.160;7.026;2022-10-16T01:00:45;12.00;99.90
52471;DHT22;38382;53.160;7.026;2022-10-16T01:03:35;12.10;99.90
52471;DHT22;38382;53.160;7.026;2022-10-16T01:06:28;12.00;99.90
52471;DHT22;38382;53.160;7.026;2022-10-16T01:17:34;12.00;99.90
52471;DHT22;38382;53.160;7.026;2022-10-16T01:28:26;11.90;99.90
52471;DHT22;38382;53.160;7.026;2022-10-16T01:30:57;11.90;99.90
52471;DHT22;38382;53.160;7.026;2022-10-16T01:33:30;11.90;99.90
52471;DHT22;38382;53.160;7.026;2022-10-16T01:36:09;11.90;99.90
52471;DHT22;38382;53.160;7.026;2022-10-16T01:38:38;11.80;99.90
52471;DHT22;38382;53.160;7.026;2022-10-16T01:41:15;11.90;99.90
52471;DHT22;38382;53.160;7.026;2022-10-16T01:43:55;11.90;99.90
52471;DHT22;38382;53.160;7.026;2022-10-16T01:46:22;11.90;99.90
52471;DHT22;38382;53.160;7.026;2022-10-16T01:48:49;11.80;99.90
52471;DHT22;38382;53.160;7.026;2022-10-16T01:51:17;11.80;99.90
52471;DHT22;38382;53.160;7.026;2022-10-16T01:53:49;11.90;99.90
52471;DHT22;38382;53.160;7.026;2022-10-16T01:56:17;11.90;99.90
52471;DHT22;38382;53.160;7.026;2022-10-16T01:58:57;11.90;99.90
52471;DHT22;38382;53.160;7.026;2022-10-16T02:01:27;11.90;99.90
52471;DHT22;38382;53.160;7.026;2022-10-16T02:03:56;12.00;99.90
52471;DHT22;38382;53.160;7.026;2022-10-16T02:06:24;12.00;99.90
52471;DHT22;38382;53.160;7.026;2022-10-16T02:08:51;12.00;99.90
52471;DHT22;38382;53.160;7.026;2022-10-16T02:11:17;12.00;99.90
52471;DHT22;38382;53.160;7.026;2022-10-16T02:13:49;12.00;99.90
52471;DHT22;38382;53.160;7.026;2022-10-16T02:16:16;12.00;99.90
52471;DHT22;38382;53.160;7.026;2022-10-16T02:18:43;12.10;99.90
52471;DHT22;38382;53.160;7.026;2022-10-16T02:24:03;12.10;99.90
52471;DHT22;38382;53.160;7.026;2022-10-16T02:26:41;12.20;99.90
52471;DHT22;38382;53.160;7.026;2022-10-16T02:29:11;12.20;99.90
52471;DHT22;38382;53.160;7.026;2022-10-16T02:31:41;12.20;99.90
52471;DHT22;38382;53.160;7.026;2022-10-16T02:34:09;12.20;99.90
52471;DHT22;38382;53.160;7.026;2022-10-16T02:36:38;12.20;99.90
52471;DHT22;38382;53.160;7.026;2022-10-16T02:39:04;12.30;99.90
52471;DHT22;38382;53.160;7.026;2022-10-16T02:41:31;12.20;99.90
52471;DHT22;38382;53.160;7.026;2022-10-16T02:43:57;12.30;99.90
52471;DHT22;38382;53.160;7.026;2022-10-16T02:46:22;12.20;99.90
52471;DHT22;38382;53.160;7.026;2022-10-16T02:48:48;12.30;99.90
52471;DHT22;38382;53.160;7.026;2022-10-16T02:51:14;12.40;99.90
52471;DHT22;38382;53.160;7.026;2022-10-16T02:53:40;12.40;99.90
52471;DHT22;38382;53.160;7.026;2022-10-16T02:56:05;12.40;99.90
52471;DHT22;38382;53.160;7.026;2022-10-16T02:58:31;12.40;99.90
52471;DHT22;38382;53.160;7.026;2022-10-16T03:00:57;12.40;99.90
52471;DHT22;38382;53.160;7.026;2022-10-16T03:03:23;12.40;99.90
52471;DHT22;38382;53.160;7.026;2022-10-16T03:05:48;12.40;99.90
52471;DHT22;38382;53.160;7.026;2022-10-16T03:08:14;12.50;99.90
52471;DHT22;38382;53.160;7.026;2022-10-16T03:10:40;12.50;99.90
52471;DHT22;38382;53.160;7.026;2022-10-16T03:13:06;12.40;99.90
52471;DHT22;38382;53.160;7.026;2022-10-16T03:15:31;12.40;99.90
52471;DHT22;38382;53.160;7.026;2022-10-16T03:17:58;12.40;99.90
52471;DHT22;38382;53.160;7.026;2022-10-16T03:20:24;12.50;99.90
52471;DHT22;38382;53.160;7.026;2022-10-16T03:22:51;12.50;99.90
52471;DHT22;38382;53.160;7.026;2022-10-16T03:25:16;12.50;99.90
52471;DHT22;38382;53.160;7.026;2022-10-16T03:27:42;12.50;99.90
52471;DHT22;38382;53.160;7.026;2022-10-16T03:30:08;12.40;99.90
52471;DHT22;38382;53.160;7.026;2022-10-16T03:32:34;12.40;99.90
52471;DHT22;38382;53.160;7.026;2022-10-16T03:35:00;12.40;99.90
52471;DHT22;38382;53.160;7.026;2022-10-16T03:37:26;12.40;99.90
52471;DHT22;38382;53.160;7.026;2022-10-16T03:39:52;12.40;99.90
52471;DHT22;38382;53.160;7.026;2022-10-16T03:42:17;12.40;99.90
52471;DHT22;38382;53.160;7.026;2022-10-16T03:44:43;12.40;99.90
52471;DHT22;38382;53.160;7.026;2022-10-16T03:47:09;12.40;99.90
52471;DHT22;38382;53.160;7.026;2022-10-16T03:49:34;12.50;99.90
52471;DHT22;38382;53.160;7.026;2022-10-16T03:52:00;12.40;99.90
52471;DHT22;38382;53.160;7.026;2022-10-16T03:54:26;12.50;99.90
52471;DHT22;38382;53.160;7.026;2022-10-16T03:56:51;12.50;99.90
52471;DHT22;38382;53.160;7.026;2022-10-16T03:59:17;12.50;99.90
52471;DHT22;38382;53.160;7.026;2022-10-16T04:01:43;12.50;99.90
52471;DHT22;38382;53.160;7.026;2022-10-16T04:04:09;12.40;99.90
52471;DHT22;38382;53.160;7.026;2022-10-16T04:06:34;12.40;99.90
52471;DHT22;38382;53.160;7.026;2022-10-16T04:09:00;12.40;99.90
52471;DHT22;38382;53.160;7.026;2022-10-16T04:11:26;12.40;99.90
52471;DHT22;38382;53.160;7.026;2022-10-16T04:13:51;12.40;99.90
52471;DHT22;38382;53.160;7.026;2022-10-16T04:16:17;12.30;99.90
52471;DHT22;38382;53.160;7.026;2022-10-16T04:18:43;12.30;99.90
52471;DHT22;38382;53.160;7.026;2022-10-16T04:21:08;12.30;99.90
52471;DHT22;38382;53.160;7.026;2022-10-16T04:23:34;12.30;99.90
52471;DHT22;38382;53.160;7.026;2022-10-16T04:26:00;12.20;99.90
52471;DHT22;38382;53.160;7.026;2022-10-16T04:28:26;12.20;99.90
52471;DHT22;38382;53.160;7.026;2022-10-16T04:30:52;12.20;99.90
52471;DHT22;38382;53.160;7.026;2022-10-16T04:33:18;12.20;99.90
52471;DHT22;38382;53.160;7.026;2022-10-16T04:35:43;12.20;99.90
52471;DHT22;38382;53.160;7.026;2022-10-16T04:38:09;12.20;99.90
52471;DHT22;38382;53.160;7.026;2022-10-16T04:40:35;12.10;99.90
52471;DHT22;38382;53.160;7.026;2022-10-16T04:43:05;12.20;99.90
52471;DHT22;38382;53.160;7.026;2022-10-16T04:45:31;12.20;99.90
52471;DHT22;38382;53.160;7.026;2022-10-16T04:47:58;12.20;99.90
52471;DHT22;38382;53.160;7.026;2022-10-16T04:50:23;12.20;99.90
52471;DHT22;38382;53.160;7.026;2022-10-16T04:52:49;12.20;99.90
52471;DHT22;38382;53.160;7.026;2022-10-16T04:55:15;12.20;99.90
52471;DHT22;38382;53.160;7.026;2022-10-16T04:57:41;12.20;99.90
52471;DHT22;38382;53.160;7.026;2022-10-16T05:00:07;12.30;99.90
52471;DHT22;38382;53.160;7.026;2022-10-16T05:02:33;12.20;99.90
52471;DHT22;38382;53.160;7.026;2022-10-16T05:04:59;12.30;99.90
52471;DHT22;38382;53.160;7.026;2022-10-16T05:07:25;12.30;99.90
52471;DHT22;38382;53.160;7.026;2022-10-16T05:09:51;12.30;99.90
52471;DHT22;38382;53.160;7.026;2022-10-16T05:12:16;12.30;99.90
52471;DHT22;38382;53.160;7.026;2022-10-16T05:14:42;12.20;99.90
52471;DHT22;38382;53.160;7.026;2022-10-16T05:17:08;12.30;99.90
52471;DHT22;38382;53.160;7.026;2022-10-16T05:19:33;12.30;99.90
52471;DHT22;38382;53.160;7.026;2022-10-16T05:21:59;12.30;99.90
52471;DHT22;38382;53.160;7.026;2022-10-16T05:24:25;12.30;99.90
52471;DHT22;38382;53.160;7.026;2022-10-16T05:26:52;12.40;99.90
52471;DHT22;38382;53.160;7.026;2022-10-16T05:29:17;12.40;99.90
52471;DHT22;38382;53.160;7.026;2022-10-16T05:31:43;12.40;99.90
52471;DHT22;38382;53.160;7.026;2022-10-16T05:34:09;12.50;99.90
52471;DHT22;38382;53.160;7.026;2022-10-16T05:36:34;12.50;99.90
52471;DHT22;38382;53.160;7.026;2022-10-16T05:39:00;12.50;99.90
52471;DHT22;38382;53.160;7.026;2022-10-16T05:41:26;12.50;99.90
52471;DHT22;38382;53.160;7.026;2022-10-16T05:43:52;12.50;99.90
52471;DHT22;38382;53.160;7.026;2022-10-16T05:46:18;12.50;99.90
52471;DHT22;38382;53.160;7.026;2022-10-16T05:48:44;12.50;99.90
52471;DHT22;38382;53.160;7.026;2022-10-16T05:51:12;12.50;99.90
52471;DHT22;38382;53.160;7.026;2022-10-16T05:53:38;12.50;99.90
52471;DHT22;38382;53.160;7.026;2022-10-16T05:56:06;12.40;99.90
52471;DHT22;38382;53.160;7.026;2022-10-16T05:58:34;12.50;99.90
52471;DHT22;38382;53.160;7.026;2022-10-16T06:01:03;12.50;99.90
52471;DHT22;38382;53.160;7.026;2022-10-16T06:03:30;12.50;99.90
52471;DHT22;38382;53.160;7.026;2022-10-16T06:05:56;12.50;99.90
52471;DHT22;38382;53.160;7.026;2022-10-16T06:08:22;12.50;99.90
52471;DHT22;38382;53.160;7.026;2022-10-16T06:10:49;12.50;99.90
52471;DHT22;38382;53.160;7.026;2022-10-16T06:13:25;12.50;99.90
52471;DHT22;38382;53.160;7.026;2022-10-16T06:15:50;12.50;99.90
52471;DHT22;38382;53.160;7.026;2022-10-16T06:18:16;12.50;99.90
52471;DHT22;38382;53.160;7.026;2022-10-16T06:20:42;12.50;99.90
52471;DHT22;38382;53.160;7.026;2022-10-16T06:23:08;12.50;99.90
52471;DHT22;38382;53.160;7.026;2022-10-16T06:25:33;12.50;99.90
52471;DHT22;38382;53.160;7.026;2022-10-16T06:27:59;12.50;99.90
52471;DHT22;38382;53.160;7.026;2022-10-16T06:30:25;12.50;99.90
52471;DHT22;38382;53.160;7.026;2022-10-16T06:32:50;12.50;99.90
52471;DHT22;38382;53.160;7.026;2022-10-16T06:35:16;12.60;99.90
52471;DHT22;38382;53.160;7.026;2022-10-16T06:37:42;12.60;99.90
52471;DHT22;38382;53.160;7.026;2022-10-16T06:40:08;12.60;99.90
52471;DHT22;38382;53.160;7.026;2022-10-16T06:42:33;12.60;99.90
52471;DHT22;38382;53.160;7.026;2022-10-16T06:44:59;12.60;99.90
52471;DHT22;38382;53.160;7.026;2022-10-16T06:47:25;12.60;99.90
52471;DHT22;38382;53.160;7.026;2022-10-16T06:49:51;12.60;99.90
52471;DHT22;38382;53.160;7.026;2022-10-16T06:52:16;12.70;99.90
52471;DHT22;38382;53.160;7.026;2022-10-16T06:54:42;12.70;99.90
52471;DHT22;38382;53.160;7.026;2022-10-16T06:57:08;12.70;99.90
52471;DHT22;38382;53.160;7.026;2022-10-16T06:59:33;12.70;99.90
52471;DHT22;38382;53.160;7.026;2022-10-16T07:01:59;12.70;99.90
52471;DHT22;38382;53.160;7.026;2022-10-16T07:04:25;12.70;99.90
52471;DHT22;38382;53.160;7.026;2022-10-16T07:06:50;12.70;99.90
52471;DHT22;38382;53.160;7.026;2022-10-16T07:09:17;12.70;99.90
52471;DHT22;38382;53.160;7.026;2022-10-16T07:11:43;12.70;99.90
52471;DHT22;38382;53.160;7.026;2022-10-16T07:14:20;12.80;99.90
52471;DHT22;38382;53.160;7.026;2022-10-16T07:16:46;12.80;99.90
52471;DHT22;38382;53.160;7.026;2022-10-16T07:19:13;12.90;99.90
52471;DHT22;38382;53.160;7.026;2022-10-16T07:21:41;13.00;99.90
52471;DHT22;38382;53.160;7.026;2022-10-16T07:24:12;13.00;99.90
52471;DHT22;38382;53.160;7.026;2022-10-16T07:26:39;13.10;99.90
52471;DHT22;38382;53.160;7.026;2022-10-16T07:29:07;13.20;99.90
52471;DHT22;38382;53.160;7.026;2022-10-16T07:31:36;13.30;99.90
52471;DHT22;38382;53.160;7.026;2022-10-16T07:34:03;13.20;99.90
52471;DHT22;38382;53.160;7.026;2022-10-16T07:36:29;13.30;99.90
52471;DHT22;38382;53.160;7.026;2022-10-16T07:38:54;13.30;99.90
52471;DHT22;38382;53.160;7.026;2022-10-16T07:41:21;13.30;99.90
52471;DHT22;38382;53.160;7.026;2022-10-16T07:43:49;13.30;99.90
52471;DHT22;38382;53.160;7.026;2022-10-16T07:46:16;13.40;99.90
52471;DHT22;38382;53.160;7.026;2022-10-16T07:48:42;13.40;99.90
52471;DHT22;38382;53.160;7.026;2022-10-16T07:51:11;13.40;99.90
52471;DHT22;38382;53.160;7.026;2022-10-16T07:53:37;13.50;99.90
52471;DHT22;38382;53.160;7.026;2022-10-16T07:56:05;13.50;99.90
52471;DHT22;38382;53.160;7.026;2022-10-16T07:58:32;13.50;99.90
52471;DHT22;38382;53.160;7.026;2022-10-16T08:00:58;13.60;99.90
52471;DHT22;38382;53.160;7.026;2022-10-16T08:03:25;13.60;99.90
52471;DHT22;38382;53.160;7.026;2022-10-16T08:05:51;13.60;99.90
52471;DHT22;38382;53.160;7.026;2022-10-16T08:08:18;13.60;99.90
52471;DHT22;38382;53.160;7.026;2022-10-16T08:10:44;13.70;99.90
52471;DHT22;38382;53.160;7.026;2022-10-16T08:13:10;13.70;99.90
52471;DHT22;38382;53.160;7.026;2022-10-16T08:15:36;13.70;99.90
52471;DHT22;38382;53.160;7.026;2022-10-16T08:18:03;13.70;99.90
52471;DHT22;38382;53.160;7.026;2022-10-16T08:20:31;13.80;99.90
52471;DHT22;38382;53.160;7.026;2022-10-16T08:22:59;13.70;99.90
52471;DHT22;38382;53.160;7.026;2022-10-16T08:25:24;13.70;99.90
52471;DHT22;38382;53.160;7.026;2022-10-16T08:27:50;13.70;99.90
52471;DHT22;38382;53.160;7.026;2022-10-16T08:30:18;13.70;99.90
52471;DHT22;38382;53.160;7.026;2022-10-16T08:32:44;13.70;99.90
52471;DHT22;38382;53.160;7.026;2022-10-16T08:35:11;13.70;99.90
52471;DHT22;38382;53.160;7.026;2022-10-16T08:37:38;13.80;99.90
52471;DHT22;38382;53.160;7.026;2022-10-16T08:40:05;13.90;99.90
52471;DHT22;38382;53.160;7.026;2022-10-16T08:48:15;14.10;99.90
52471;DHT22;38382;53.160;7.026;2022-10-16T08:50:43;14.10;99.90
52471;DHT22;38382;53.160;7.026;2022-10-16T08:53:31;14.20;99.90
52471;DHT22;38382;53.160;7.026;2022-10-16T08:55:59;14.20;99.90
52471;DHT22;38382;53.160;7.026;2022-10-16T08:58:29;14.30;99.90
52471;DHT22;38382;53.160;7.026;2022-10-16T09:01:02;14.40;99.90
52471;DHT22;38382;53.160;7.026;2022-10-16T09:04:04;14.60;99.90
52471;DHT22;38382;53.160;7.026;2022-10-16T09:06:45;14.70;99.90
52471;DHT22;38382;53.160;7.026;2022-10-16T09:09:29;14.90;99.90
52471;DHT22;38382;53.160;7.026;2022-10-16T09:20:22;15.10;99.90
52471;DHT22;38382;53.160;7.026;2022-10-16T09:22:55;15.30;99.90
52471;DHT22;38382;53.160;7.026;2022-10-16T09:25:26;15.50;99.90
52471;DHT22;38382;53.160;7.026;2022-10-16T09:27:53;15.60;99.90
52471;DHT22;38382;53.160;7.026;2022-10-16T09:30:21;15.80;99.90
52471;DHT22;38382;53.160;7.026;2022-10-16T09:32:50;16.00;99.90
52471;DHT22;38382;53.160;7.026;2022-10-16T09:38:31;16.30;99.90
52471;DHT22;38382;53.160;7.026;2022-10-16T09:41:02;16.40;99.90
52471;DHT22;38382;53.160;7.026;2022-10-16T09:43:55;16.60;99.90
52471;DHT22;38382;53.160;7.026;2022-10-16T09:48:50;16.60;99.90
52471;DHT22;38382;53.160;7.026;2022-10-16T09:51:26;16.70;99.90
52471;DHT22;38382;53.160;7.026;2022-10-16T09:56:38;16.60;99.90
52471;DHT22;38382;53.160;7.026;2022-10-16T09:59:25;16.50;99.90
52471;DHT22;38382;53.160;7.026;2022-10-16T10:01:58;16.60;99.90
52471;DHT22;38382;53.160;7.026;2022-10-16T10:04:48;16.60;99.90
52471;DHT22;38382;53.160;7.026;2022-10-16T10:07:24;16.60;99.90
52471;DHT22;38382;53.160;7.026;2022-10-16T10:09:50;16.60;99.90
52471;DHT22;38382;53.160;7.026;2022-10-16T10:12:27;16.60;99.90
52471;DHT22;38382;53.160;7.026;2022-10-16T10:14:58;16.50;99.90
52471;DHT22;38382;53.160;7.026;2022-10-16T10:17:30;16.50;99.90
52471;DHT22;38382;53.160;7.026;2022-10-16T10:19:58;16.40;99.90
52471;DHT22;38382;53.160;7.026;2022-10-16T10:22:29;16.50;99.90
52471;DHT22;38382;53.160;7.026;2022-10-16T10:27:48;16.60;99.90
52471;DHT22;38382;53.160;7.026;2022-10-16T10:35:49;17.40;99.90
52471;DHT22;38382;53.160;7.026;2022-10-16T10:38:34;17.60;99.90
52471;DHT22;38382;53.160;7.026;2022-10-16T10:41:21;17.70;99.90
52471;DHT22;38382;53.160;7.026;2022-10-16T10:49:41;18.20;99.90
52471;DHT22;38382;53.160;7.026;2022-10-16T10:57:43;18.30;99.90
52471;DHT22;38382;53.160;7.026;2022-10-16T11:00:28;18.20;99.90
52471;DHT22;38382;53.160;7.026;2022-10-16T11:05:56;18.00;99.90
52471;DHT22;38382;53.160;7.026;2022-10-16T11:08:49;18.20;99.90
52471;DHT22;38382;53.160;7.026;2022-10-16T11:11:24;18.40;99.90
52471;DHT22;38382;53.160;7.026;2022-10-16T11:14:01;18.50;99.90
52471;DHT22;38382;53.160;7.026;2022-10-16T11:16:49;18.60;99.90
52471;DHT22;38382;53.160;7.026;2022-10-16T11:19:32;18.50;99.90
52471;DHT22;38382;53.160;7.026;2022-10-16T11:22:27;18.60;99.90
52471;DHT22;38382;53.160;7.026;2022-10-16T11:30:14;18.90;99.90
52471;DHT22;38382;53.160;7.026;2022-10-16T11:40:58;18.20;99.90
52471;DHT22;38382;53.160;7.026;2022-10-16T11:43:37;18.20;99.90
52471;DHT22;38382;53.160;7.026;2022-10-16T11:46:11;17.90;99.90
52471;DHT22;38382;53.160;7.026;2022-10-16T11:48:59;17.80;99.90
52471;DHT22;38382;53.160;7.026;2022-10-16T11:53:59;17.60;99.90
52471;DHT22;38382;53.160;7.026;2022-10-16T11:56:27;17.80;99.90
52471;DHT22;38382;53.160;7.026;2022-10-16T11:59:04;18.20;99.90
52471;DHT22;38382;53.160;7.026;2022-10-16T12:01:41;18.60;99.90
52471;DHT22;38382;53.160;7.026;2022-10-16T12:04:30;19.00;99.90
52471;DHT22;38382;53.160;7.026;2022-10-16T12:07:11;19.20;99.90
52471;DHT22;38382;53.160;7.026;2022-10-16T12:09:40;19.50;99.90
52471;DHT22;38382;53.160;7.026;2022-10-16T12:15:26;20.10;99.90
52471;DHT22;38382;53.160;7.026;2022-10-16T12:17:52;20.30;99.90
52471;DHT22;38382;53.160;7.026;2022-10-16T12:20:36;20.50;99.90
52471;DHT22;38382;53.160;7.026;2022-10-16T12:23:07;20.60;99.90
52471;DHT22;38382;53.160;7.026;2022-10-16T12:26:00;20.70;99.90
52471;DHT22;38382;53.160;7.026;2022-10-16T12:28:32;20.60;99.90
52471;DHT22;38382;53.160;7.026;2022-10-16T12:31:04;20.70;99.90
52471;DHT22;38382;53.160;7.026;2022-10-16T12:33:31;20.80;99.90
52471;DHT22;38382;53.160;7.026;2022-10-16T12:36:00;20.90;99.90
52471;DHT22;38382;53.160;7.026;2022-10-16T12:38:35;20.90;99.90
52471;DHT22;38382;53.160;7.026;2022-10-16T12:41:07;20.90;99.90
52471;DHT22;38382;53.160;7.026;2022-10-16T12:46:22;21.00;99.90
52471;DHT22;38382;53.160;7.026;2022-10-16T12:48:49;20.70;99.90
52471;DHT22;38382;53.160;7.026;2022-10-16T12:54:17;20.70;99.90
52471;DHT22;38382;53.160;7.026;2022-10-16T13:02:58;21.70;99.90
52471;DHT22;38382;53.160;7.026;2022-10-16T13:10:40;22.30;99.10
52471;DHT22;38382;53.160;7.026;2022-10-16T13:15:38;22.70;96.10
52471;DHT22;38382;53.160;7.026;2022-10-16T13:18:22;23.10;97.00
52471;DHT22;38382;53.160;7.026;2022-10-16T13:21:02;23.30;94.70
52471;DHT22;38382;53.160;7.026;2022-10-16T13:23:41;23.20;92.30
52471;DHT22;38382;53.160;7.026;2022-10-16T13:26:51;23.10;93.70
52471;DHT22;38382;53.160;7.026;2022-10-16T13:29:14;23.00;90.70
52471;DHT22;38382;53.160;7.026;2022-10-16T13:31:40;22.80;93.10
52471;DHT22;38382;53.160;7.026;2022-10-16T13:34:14;22.60;93.20
52471;DHT22;38382;53.160;7.026;2022-10-16T13:36:49;22.50;93.50
52471;DHT22;38382;53.160;7.026;2022-10-16T13:39:29;22.50;93.40
52471;DHT22;38382;53.160;7.026;2022-10-16T13:44:39;22.80;91.00
52471;DHT22;38382;53.160;7.026;2022-10-16T13:47:26;22.90;91.10
52471;DHT22;38382;53.160;7.026;2022-10-16T13:50:02;22.90;90.50
52471;DHT22;38382;53.160;7.026;2022-10-16T13:52:29;22.70;90.60
52471;DHT22;38382;53.160;7.026;2022-10-16T13:54:55;22.20;91.80
52471;DHT22;38382;53.160;7.026;2022-10-16T13:57:25;21.90;93.70
52471;DHT22;38382;53.160;7.026;2022-10-16T13:59:51;21.70;94.60
52471;DHT22;38382;53.160;7.026;2022-10-16T14:02:38;21.60;95.10
52471;DHT22;38382;53.160;7.026;2022-10-16T14:05:08;21.80;94.10
52471;DHT22;38382;53.160;7.026;2022-10-16T14:07:36;22.00;95.50
52471;DHT22;38382;53.160;7.026;2022-10-16T14:10:06;22.10;94.70
52471;DHT22;38382;53.160;7.026;2022-10-16T14:12:32;21.80;93.70
52471;DHT22;38382;53.160;7.026;2022-10-16T14:14:59;21.30;94.20
52471;DHT22;38382;53.160;7.026;2022-10-16T14:17:31;20.70;94.80
52471;DHT22;38382;53.160;7.026;2022-10-16T14:20:01;20.30;95.80
52471;DHT22;38382;53.160;7.026;2022-10-16T14:24:58;19.70;97.10
52471;DHT22;38382;53.160;7.026;2022-10-16T14:27:36;19.40;98.10
52471;DHT22;38382;53.160;7.026;2022-10-16T14:30:20;19.20;98.10
52471;DHT22;38382;53.160;7.026;2022-10-16T14:32:58;18.90;99.00
52471;DHT22;38382;53.160;7.026;2022-10-16T14:35:34;18.80;99.90
52471;DHT22;38382;53.160;7.026;2022-10-16T14:38:02;18.60;99.90
52471;DHT22;38382;53.160;7.026;2022-10-16T14:40:31;18.40;99.90
52471;DHT22;38382;53.160;7.026;2022-10-16T14:42:57;18.30;99.90
52471;DHT22;38382;53.160;7.026;2022-10-16T14:45:29;18.20;99.90
52471;DHT22;38382;53.160;7.026;2022-10-16T14:47:58;18.10;99.90
52471;DHT22;38382;53.160;7.026;2022-10-16T14:50:24;18.00;99.90
52471;DHT22;38382;53.160;7.026;2022-10-16T14:52:50;18.00;99.90
52471;DHT22;38382;53.160;7.026;2022-10-16T14:55:16;17.90;99.90
52471;DHT22;38382;53.160;7.026;2022-10-16T14:57:44;17.80;99.90
52471;DHT22;38382;53.160;7.026;2022-10-16T15:00:21;17.80;99.90
52471;DHT22;38382;53.160;7.026;2022-10-16T15:02:48;17.70;99.90
52471;DHT22;38382;53.160;7.026;2022-10-16T15:05:26;17.60;99.90
52471;DHT22;38382;53.160;7.026;2022-10-16T15:07:53;17.60;99.90
52471;DHT22;38382;53.160;7.026;2022-10-16T15:10:21;17.50;99.90
52471;DHT22;38382;53.160;7.026;2022-10-16T15:12:48;17.40;99.90
52471;DHT22;38382;53.160;7.026;2022-10-16T15:17:53;17.30;99.90
52471;DHT22;38382;53.160;7.026;2022-10-16T15:20:25;17.20;99.90
52471;DHT22;38382;53.160;7.026;2022-10-16T15:22:50;17.20;99.90
52471;DHT22;38382;53.160;7.026;2022-10-16T15:27:51;17.10;99.90
52471;DHT22;38382;53.160;7.026;2022-10-16T15:30:16;17.00;99.90
52471;DHT22;38382;53.160;7.026;2022-10-16T15:32:42;17.00;99.90
52471;DHT22;38382;53.160;7.026;2022-10-16T15:35:09;16.90;99.90
52471;DHT22;38382;53.160;7.026;2022-10-16T15:37:34;16.90;99.90
52471;DHT22;38382;53.160;7.026;2022-10-16T15:40:00;16.80;99.90
52471;DHT22;38382;53.160;7.026;2022-10-16T15:42:26;16.80;99.90
52471;DHT22;38382;53.160;7.026;2022-10-16T15:44:52;16.70;99.90
52471;DHT22;38382;53.160;7.026;2022-10-16T15:47:18;16.60;99.90
52471;DHT22;38382;53.160;7.026;2022-10-16T15:49:43;16.50;99.90
52471;DHT22;38382;53.160;7.026;2022-10-16T15:52:09;16.40;99.90
52471;DHT22;38382;53.160;7.026;2022-10-16T15:54:35;16.40;99.90
52471;DHT22;38382;53.160;7.026;2022-10-16T15:57:00;16.30;99.90
52471;DHT22;38382;53.160;7.026;2022-10-16T15:59:26;16.20;99.90
52471;DHT22;38382;53.160;7.026;2022-10-16T16:01:52;16.10;99.90
52471;DHT22;38382;53.160;7.026;2022-10-16T16:04:18;16.00;99.90
52471;DHT22;38382;53.160;7.026;2022-10-16T16:06:44;16.00;99.90
52471;DHT22;38382;53.160;7.026;2022-10-16T16:09:14;15.90;99.90
52471;DHT22;38382;53.160;7.026;2022-10-16T16:11:40;15.70;99.90
52471;DHT22;38382;53.160;7.026;2022-10-16T16:14:06;15.50;99.90
52471;DHT22;38382;53.160;7.026;2022-10-16T16:16:32;15.40;99.90
52471;DHT22;38382;53.160;7.026;2022-10-16T16:19:03;15.30;99.90
52471;DHT22;38382;53.160;7.026;2022-10-16T16:21:30;15.10;99.90
52471;DHT22;38382;53.160;7.026;2022-10-16T16:23:55;15.00;99.90
52471;DHT22;38382;53.160;7.026;2022-10-16T16:26:29;14.90;99.90
52471;DHT22;38382;53.160;7.026;2022-10-16T16:28:58;14.80;99.90
52471;DHT22;38382;53.160;7.026;2022-10-16T16:31:25;14.60;99.90
52471;DHT22;38382;53.160;7.026;2022-10-16T16:33:51;14.50;99.90
52471;DHT22;38382;53.160;7.026;2022-10-16T16:36:17;14.40;99.90
52471;DHT22;38382;53.160;7.026;2022-10-16T16:38:44;14.30;99.90
52471;DHT22;38382;53.160;7.026;2022-10-16T16:41:15;14.10;99.90
52471;DHT22;38382;53.160;7.026;2022-10-16T16:43:42;14.10;99.90
52471;DHT22;38382;53.160;7.026;2022-10-16T16:46:08;13.90;99.90
52471;DHT22;38382;53.160;7.026;2022-10-16T16:48:34;13.80;99.90
52471;DHT22;38382;53.160;7.026;2022-10-16T16:51:08;13.70;99.90
52471;DHT22;38382;53.160;7.026;2022-10-16T16:53:36;13.60;99.90
52471;DHT22;38382;53.160;7.026;2022-10-16T16:56:03;13.50;99.90
52471;DHT22;38382;53.160;7.026;2022-10-16T16:58:30;13.40;99.90
52471;DHT22;38382;53.160;7.026;2022-10-16T17:00:56;13.30;99.90
52471;DHT22;38382;53.160;7.026;2022-10-16T17:03:22;13.30;99.90
52471;DHT22;38382;53.160;7.026;2022-10-16T17:05:58;13.20;99.90
52471;DHT22;38382;53.160;7.026;2022-10-16T17:08:24;13.10;99.90
52471;DHT22;38382;53.160;7.026;2022-10-16T17:10:50;13.00;99.90
52471;DHT22;38382;53.160;7.026;2022-10-16T17:13:21;12.90;99.90
52471;DHT22;38382;53.160;7.026;2022-10-16T17:15:49;12.90;99.90
52471;DHT22;38382;53.160;7.026;2022-10-16T17:18:16;12.80;99.90
52471;DHT22;38382;53.160;7.026;2022-10-16T17:20:43;12.80;99.90
52471;DHT22;38382;53.160;7.026;2022-10-16T17:23:09;12.70;99.90
52471;DHT22;38382;53.160;7.026;2022-10-16T17:25:37;12.60;99.90
52471;DHT22;38382;53.160;7.026;2022-10-16T17:28:03;12.60;99.90
52471;DHT22;38382;53.160;7.026;2022-10-16T17:30:29;12.50;99.90
52471;DHT22;38382;53.160;7.026;2022-10-16T17:32:55;12.40;99.90
52471;DHT22;38382;53.160;7.026;2022-10-16T17:35:20;12.40;99.90
52471;DHT22;38382;53.160;7.026;2022-10-16T17:37:46;12.30;99.90
52471;DHT22;38382;53.160;7.026;2022-10-16T17:40:12;12.30;99.90